sensor_id;sensor_type;location;lat;lon;timestamp;P1;durP1;ratioP1;P2;durP2;ratioP2
72864;SDS011;61000;48.120;11.548;2023-02-19T00:02:08;1.75;;;1.65;;
72864;SDS011;61000;48.120;11.548;2023-02-19T00:04:34;1.60;;;1.50;;
72864;SDS011;61000;48.120;11.548;2023-02-19T00:07:01;1.90;;;1.77;;
72864;SDS011;61000;48.120;11.548;2023-02-19T00:09:28;2.03;;;1.85;;
72864;SDS011;61000;48.120;11.548;2023-02-19T00:11:55;1.95;;;1.77;;
72864;SDS011;61000;48.120;11.548;2023-02-19T00:14:22;1.90;;;1.70;;
72864;SDS011;61000;48.120;11.548;2023-02-19T00:16:50;2.15;;;1.80;;
72864;SDS011;61000;48.120;11.548;2023-02-19T00:19:17;1.95;;;1.85;;
72864;SDS011;61000;48.120;11.548;2023-02-19T00:21:45;2.05;;;1.90;;
72864;SDS011;61000;48.120;11.548;2023-02-19T00:24:13;1.98;;;1.77;;
72864;SDS011;61000;48.120;11.548;2023-02-19T00:26:40;2.95;;;2.00;;
72864;SDS011;61000;48.120;11.548;2023-02-19T00:29:08;2.10;;;1.80;;
72864;SDS011;61000;48.120;11.548;2023-02-19T00:31:40;1.92;;;1.80;;
72864;SDS011;61000;48.120;11.548;2023-02-19T00:34:09;2.05;;;1.73;;
72864;SDS011;61000;48.120;11.548;2023-02-19T00:36:37;1.70;;;1.60;;
72864;SDS011;61000;48.120;11.548;2023-02-19T00:39:05;2.30;;;1.80;;
72864;SDS011;61000;48.120;11.548;2023-02-19T00:41:33;1.73;;;1.63;;
72864;SDS011;61000;48.120;11.548;2023-02-19T00:44:01;2.50;;;1.83;;
72864;SDS011;61000;48.120;11.548;2023-02-19T00:46:29;2.20;;;1.70;;
72864;SDS011;61000;48.120;11.548;2023-02-19T00:48:58;2.30;;;2.10;;
72864;SDS011;61000;48.120;11.548;2023-02-19T00:51:27;2.10;;;1.92;;
72864;SDS011;61000;48.120;11.548;2023-02-19T00:53:56;2.03;;;1.80;;
72864;SDS011;61000;48.120;11.548;2023-02-19T00:56:23;1.95;;;1.75;;
72864;SDS011;61000;48.120;11.548;2023-02-19T00:58:50;3.45;;;1.80;;
72864;SDS011;61000;48.120;11.548;2023-02-19T01:01:17;1.73;;;1.60;;
72864;SDS011;61000;48.120;11.548;2023-02-19T01:03:45;2.38;;;1.73;;
72864;SDS011;61000;48.120;11.548;2023-02-19T01:06:13;3.35;;;1.83;;
72864;SDS011;61000;48.120;11.548;2023-02-19T01:08:42;2.00;;;1.90;;
72864;SDS011;61000;48.120;11.548;2023-02-19T01:11:09;3.70;;;1.60;;
72864;SDS011;61000;48.120;11.548;2023-02-19T01:13:37;2.17;;;1.98;;
72864;SDS011;61000;48.120;11.548;2023-02-19T01:16:05;2.13;;;1.90;;
72864;SDS011;61000;48.120;11.548;2023-02-19T01:18:34;3.75;;;2.13;;
72864;SDS011;61000;48.120;11.548;2023-02-19T01:21:03;2.08;;;1.88;;
72864;SDS011;61000;48.120;11.548;2023-02-19T01:23:32;2.05;;;1.85;;
72864;SDS011;61000;48.120;11.548;2023-02-19T01:26:00;2.42;;;1.98;;
72864;SDS011;61000;48.120;11.548;2023-02-19T01:28:29;1.58;;;1.48;;
72864;SDS011;61000;48.120;11.548;2023-02-19T01:30:59;2.47;;;2.00;;
72864;SDS011;61000;48.120;11.548;2023-02-19T01:33:26;2.20;;;2.00;;
72864;SDS011;61000;48.120;11.548;2023-02-19T01:35:53;2.33;;;2.00;;
72864;SDS011;61000;48.120;11.548;2023-02-19T01:38:20;4.10;;;2.05;;
72864;SDS011;61000;48.120;11.548;2023-02-19T01:40:52;1.85;;;1.58;;
72864;SDS011;61000;48.120;11.548;2023-02-19T01:43:22;2.67;;;1.60;;
72864;SDS011;61000;48.120;11.548;2023-02-19T01:45:50;1.80;;;1.60;;
72864;SDS011;61000;48.120;11.548;2023-02-19T01:48:17;2.22;;;2.13;;
72864;SDS011;61000;48.120;11.548;2023-02-19T01:50:48;1.90;;;1.80;;
72864;SDS011;61000;48.120;11.548;2023-02-19T01:53:20;2.20;;;2.00;;
72864;SDS011;61000;48.120;11.548;2023-02-19T01:55:50;2.05;;;1.70;;
72864;SDS011;61000;48.120;11.548;2023-02-19T01:58:23;2.40;;;2.20;;
72864;SDS011;61000;48.120;11.548;2023-02-19T02:00:52;2.17;;;1.98;;
72864;SDS011;61000;48.120;11.548;2023-02-19T02:03:19;2.10;;;1.88;;
72864;SDS011;61000;48.120;11.548;2023-02-19T02:05:49;2.13;;;1.83;;
72864;SDS011;61000;48.120;11.548;2023-02-19T02:08:21;2.67;;;1.90;;
72864;SDS011;61000;48.120;11.548;2023-02-19T02:11:06;2.55;;;2.20;;
72864;SDS011;61000;48.120;11.548;2023-02-19T02:13:34;2.00;;;1.75;;
72864;SDS011;61000;48.120;11.548;2023-02-19T02:16:05;2.35;;;2.10;;
72864;SDS011;61000;48.120;11.548;2023-02-19T02:18:46;2.05;;;1.70;;
72864;SDS011;61000;48.120;11.548;2023-02-19T02:21:28;2.80;;;2.00;;
72864;SDS011;61000;48.120;11.548;2023-02-19T02:24:05;2.50;;;2.30;;
72864;SDS011;61000;48.120;11.548;2023-02-19T02:26:43;2.55;;;2.20;;
72864;SDS011;61000;48.120;11.548;2023-02-19T02:32:29;2.80;;;2.35;;
72864;SDS011;61000;48.120;11.548;2023-02-19T02:35:02;2.38;;;2.17;;
72864;SDS011;61000;48.120;11.548;2023-02-19T02:37:34;3.47;;;2.53;;
72864;SDS011;61000;48.120;11.548;2023-02-19T02:40:04;2.05;;;1.92;;
72864;SDS011;61000;48.120;11.548;2023-02-19T02:42:33;2.65;;;2.45;;
72864;SDS011;61000;48.120;11.548;2023-02-19T02:45:19;2.30;;;2.10;;
72864;SDS011;61000;48.120;11.548;2023-02-19T02:48:12;2.47;;;2.28;;
72864;SDS011;61000;48.120;11.548;2023-02-19T02:50:47;2.22;;;2.13;;
72864;SDS011;61000;48.120;11.548;2023-02-19T02:53:19;2.42;;;2.22;;
72864;SDS011;61000;48.120;11.548;2023-02-19T02:56:08;2.35;;;2.15;;
72864;SDS011;61000;48.120;11.548;2023-02-19T02:58:36;5.20;;;2.95;;
72864;SDS011;61000;48.120;11.548;2023-02-19T03:01:07;3.03;;;2.45;;
72864;SDS011;61000;48.120;11.548;2023-02-19T03:03:56;3.65;;;2.47;;
72864;SDS011;61000;48.120;11.548;2023-02-19T03:06:27;2.85;;;2.47;;
72864;SDS011;61000;48.120;11.548;2023-02-19T03:08:59;2.92;;;2.63;;
72864;SDS011;61000;48.120;11.548;2023-02-19T03:11:33;2.60;;;2.40;;
72864;SDS011;61000;48.120;11.548;2023-02-19T03:14:19;2.75;;;2.50;;
72864;SDS011;61000;48.120;11.548;2023-02-19T03:17:10;2.78;;;2.17;;
72864;SDS011;61000;48.120;11.548;2023-02-19T03:19:59;4.43;;;2.50;;
72864;SDS011;61000;48.120;11.548;2023-02-19T03:22:32;3.58;;;2.58;;
72864;SDS011;61000;48.120;11.548;2023-02-19T03:25:03;3.05;;;2.75;;
72864;SDS011;61000;48.120;11.548;2023-02-19T03:27:51;2.58;;;2.38;;
72864;SDS011;61000;48.120;11.548;2023-02-19T03:30:22;3.25;;;2.70;;
72864;SDS011;61000;48.120;11.548;2023-02-19T03:32:58;3.47;;;2.75;;
72864;SDS011;61000;48.120;11.548;2023-02-19T03:35:28;2.95;;;2.70;;
72864;SDS011;61000;48.120;11.548;2023-02-19T03:37:59;3.67;;;2.70;;
72864;SDS011;61000;48.120;11.548;2023-02-19T03:40:33;3.30;;;2.53;;
72864;SDS011;61000;48.120;11.548;2023-02-19T03:43:08;4.55;;;2.42;;
72864;SDS011;61000;48.120;11.548;2023-02-19T03:45:43;3.10;;;2.63;;
72864;SDS011;61000;48.120;11.548;2023-02-19T03:48:22;5.20;;;3.05;;
72864;SDS011;61000;48.120;11.548;2023-02-19T03:50:58;3.50;;;2.72;;
72864;SDS011;61000;48.120;11.548;2023-02-19T03:53:36;3.10;;;2.65;;
72864;SDS011;61000;48.120;11.548;2023-02-19T03:56:08;3.70;;;3.28;;
72864;SDS011;61000;48.120;11.548;2023-02-19T03:58:41;3.00;;;2.80;;
72864;SDS011;61000;48.120;11.548;2023-02-19T04:01:16;3.67;;;3.38;;
72864;SDS011;61000;48.120;11.548;2023-02-19T04:03:50;3.60;;;2.90;;
72864;SDS011;61000;48.120;11.548;2023-02-19T04:06:21;3.95;;;3.08;;
72864;SDS011;61000;48.120;11.548;2023-02-19T04:08:51;3.72;;;2.80;;
72864;SDS011;61000;48.120;11.548;2023-02-19T04:11:22;3.72;;;2.88;;
72864;SDS011;61000;48.120;11.548;2023-02-19T04:13:55;3.22;;;2.70;;
72864;SDS011;61000;48.120;11.548;2023-02-19T04:16:26;4.15;;;2.92;;
72864;SDS011;61000;48.120;11.548;2023-02-19T04:18:56;3.63;;;2.80;;
72864;SDS011;61000;48.120;11.548;2023-02-19T04:21:27;4.18;;;2.95;;
72864;SDS011;61000;48.120;11.548;2023-02-19T04:23:58;4.30;;;3.17;;
72864;SDS011;61000;48.120;11.548;2023-02-19T04:26:29;2.88;;;2.58;;
72864;SDS011;61000;48.120;11.548;2023-02-19T04:28:58;2.92;;;2.60;;
72864;SDS011;61000;48.120;11.548;2023-02-19T04:31:25;3.05;;;2.70;;
72864;SDS011;61000;48.120;11.548;2023-02-19T04:33:53;3.70;;;3.33;;
72864;SDS011;61000;48.120;11.548;2023-02-19T04:36:21;3.63;;;3.33;;
72864;SDS011;61000;48.120;11.548;2023-02-19T04:38:48;4.05;;;3.13;;
72864;SDS011;61000;48.120;11.548;2023-02-19T04:41:14;2.65;;;2.40;;
72864;SDS011;61000;48.120;11.548;2023-02-19T04:43:41;3.53;;;3.03;;
72864;SDS011;61000;48.120;11.548;2023-02-19T04:46:08;2.85;;;2.60;;
72864;SDS011;61000;48.120;11.548;2023-02-19T04:48:35;3.92;;;2.85;;
72864;SDS011;61000;48.120;11.548;2023-02-19T04:51:03;2.97;;;2.50;;
72864;SDS011;61000;48.120;11.548;2023-02-19T04:53:32;3.25;;;2.95;;
72864;SDS011;61000;48.120;11.548;2023-02-19T04:56:04;3.33;;;2.60;;
72864;SDS011;61000;48.120;11.548;2023-02-19T04:58:32;2.90;;;2.58;;
72864;SDS011;61000;48.120;11.548;2023-02-19T05:00:59;4.00;;;2.40;;
72864;SDS011;61000;48.120;11.548;2023-02-19T05:03:26;2.90;;;2.60;;
72864;SDS011;61000;48.120;11.548;2023-02-19T05:05:53;5.07;;;2.78;;
72864;SDS011;61000;48.120;11.548;2023-02-19T05:08:20;3.00;;;2.80;;
72864;SDS011;61000;48.120;11.548;2023-02-19T05:10:48;2.58;;;2.38;;
72864;SDS011;61000;48.120;11.548;2023-02-19T05:13:15;3.10;;;2.47;;
72864;SDS011;61000;48.120;11.548;2023-02-19T05:15:41;4.50;;;2.75;;
72864;SDS011;61000;48.120;11.548;2023-02-19T05:18:18;4.47;;;2.22;;
72864;SDS011;61000;48.120;11.548;2023-02-19T05:20:45;2.78;;;2.58;;
72864;SDS011;61000;48.120;11.548;2023-02-19T05:23:12;2.58;;;2.38;;
72864;SDS011;61000;48.120;11.548;2023-02-19T05:25:39;4.63;;;4.22;;
72864;SDS011;61000;48.120;11.548;2023-02-19T05:28:07;2.60;;;2.40;;
72864;SDS011;61000;48.120;11.548;2023-02-19T05:30:43;3.08;;;2.80;;
72864;SDS011;61000;48.120;11.548;2023-02-19T05:33:11;2.90;;;2.55;;
72864;SDS011;61000;48.120;11.548;2023-02-19T05:35:39;2.45;;;2.25;;
72864;SDS011;61000;48.120;11.548;2023-02-19T05:38:07;2.75;;;2.40;;
72864;SDS011;61000;48.120;11.548;2023-02-19T05:40:34;2.50;;;2.30;;
72864;SDS011;61000;48.120;11.548;2023-02-19T05:43:01;2.38;;;2.17;;
72864;SDS011;61000;48.120;11.548;2023-02-19T05:45:29;2.30;;;2.10;;
72864;SDS011;61000;48.120;11.548;2023-02-19T05:47:57;2.67;;;2.40;;
72864;SDS011;61000;48.120;11.548;2023-02-19T05:50:24;3.00;;;2.40;;
72864;SDS011;61000;48.120;11.548;2023-02-19T05:52:51;3.63;;;2.45;;
72864;SDS011;61000;48.120;11.548;2023-02-19T05:55:18;2.72;;;2.45;;
72864;SDS011;61000;48.120;11.548;2023-02-19T05:57:46;2.60;;;2.40;;
72864;SDS011;61000;48.120;11.548;2023-02-19T06:00:14;2.40;;;2.20;;
72864;SDS011;61000;48.120;11.548;2023-02-19T06:02:44;2.47;;;2.28;;
72864;SDS011;61000;48.120;11.548;2023-02-19T06:05:12;2.65;;;2.45;;
72864;SDS011;61000;48.120;11.548;2023-02-19T06:07:39;2.30;;;2.10;;
72864;SDS011;61000;48.120;11.548;2023-02-19T06:10:07;2.30;;;2.10;;
72864;SDS011;61000;48.120;11.548;2023-02-19T06:12:35;3.35;;;2.08;;
72864;SDS011;61000;48.120;11.548;2023-02-19T06:15:02;3.08;;;2.22;;
72864;SDS011;61000;48.120;11.548;2023-02-19T06:17:30;2.38;;;2.10;;
72864;SDS011;61000;48.120;11.548;2023-02-19T06:19:58;2.60;;;2.22;;
72864;SDS011;61000;48.120;11.548;2023-02-19T06:22:25;2.22;;;2.03;;
72864;SDS011;61000;48.120;11.548;2023-02-19T06:24:52;3.17;;;2.78;;
72864;SDS011;61000;48.120;11.548;2023-02-19T06:27:19;2.28;;;2.17;;
72864;SDS011;61000;48.120;11.548;2023-02-19T06:29:46;2.00;;;1.90;;
72864;SDS011;61000;48.120;11.548;2023-02-19T06:32:13;2.72;;;2.28;;
72864;SDS011;61000;48.120;11.548;2023-02-19T06:34:40;2.45;;;2.25;;
72864;SDS011;61000;48.120;11.548;2023-02-19T06:37:08;2.60;;;2.40;;
72864;SDS011;61000;48.120;11.548;2023-02-19T06:39:35;3.03;;;2.17;;
72864;SDS011;61000;48.120;11.548;2023-02-19T06:42:03;2.40;;;2.20;;
72864;SDS011;61000;48.120;11.548;2023-02-19T06:44:30;2.47;;;2.28;;
72864;SDS011;61000;48.120;11.548;2023-02-19T06:46:57;2.05;;;1.95;;
72864;SDS011;61000;48.120;11.548;2023-02-19T06:49:24;2.30;;;2.17;;
72864;SDS011;61000;48.120;11.548;2023-02-19T06:51:51;2.30;;;2.10;;
72864;SDS011;61000;48.120;11.548;2023-02-19T06:54:19;2.42;;;2.22;;
72864;SDS011;61000;48.120;11.548;2023-02-19T06:56:46;2.28;;;2.08;;
72864;SDS011;61000;48.120;11.548;2023-02-19T06:59:13;2.60;;;2.40;;
72864;SDS011;61000;48.120;11.548;2023-02-19T07:01:42;3.00;;;2.30;;
72864;SDS011;61000;48.120;11.548;2023-02-19T07:04:09;2.40;;;2.20;;
72864;SDS011;61000;48.120;11.548;2023-02-19T07:06:37;3.47;;;3.03;;
72864;SDS011;61000;48.120;11.548;2023-02-19T07:09:04;3.10;;;2.17;;
72864;SDS011;61000;48.120;11.548;2023-02-19T07:11:34;2.50;;;2.30;;
72864;SDS011;61000;48.120;11.548;2023-02-19T07:14:03;2.08;;;1.92;;
72864;SDS011;61000;48.120;11.548;2023-02-19T07:16:33;5.28;;;2.08;;
72864;SDS011;61000;48.120;11.548;2023-02-19T07:19:00;4.53;;;2.58;;
72864;SDS011;61000;48.120;11.548;2023-02-19T07:21:28;2.45;;;2.25;;
72864;SDS011;61000;48.120;11.548;2023-02-19T07:23:55;2.67;;;2.30;;
72864;SDS011;61000;48.120;11.548;2023-02-19T07:26:22;2.30;;;2.10;;
72864;SDS011;61000;48.120;11.548;2023-02-19T07:28:51;2.72;;;2.50;;
72864;SDS011;61000;48.120;11.548;2023-02-19T07:31:19;2.88;;;2.60;;
72864;SDS011;61000;48.120;11.548;2023-02-19T07:33:47;2.70;;;2.50;;
72864;SDS011;61000;48.120;11.548;2023-02-19T07:36:15;2.65;;;2.45;;
72864;SDS011;61000;48.120;11.548;2023-02-19T07:38:43;3.05;;;2.45;;
72864;SDS011;61000;48.120;11.548;2023-02-19T07:41:11;3.60;;;2.63;;
72864;SDS011;61000;48.120;11.548;2023-02-19T07:43:38;2.80;;;2.60;;
72864;SDS011;61000;48.120;11.548;2023-02-19T07:46:06;2.85;;;2.30;;
72864;SDS011;61000;48.120;11.548;2023-02-19T07:48:35;2.97;;;2.58;;
72864;SDS011;61000;48.120;11.548;2023-02-19T07:51:02;2.78;;;2.40;;
72864;SDS011;61000;48.120;11.548;2023-02-19T07:53:31;3.20;;;2.67;;
72864;SDS011;61000;48.120;11.548;2023-02-19T07:55:58;2.72;;;2.38;;
72864;SDS011;61000;48.120;11.548;2023-02-19T07:58:26;2.97;;;2.40;;
72864;SDS011;61000;48.120;11.548;2023-02-19T08:00:53;2.92;;;2.22;;
72864;SDS011;61000;48.120;11.548;2023-02-19T08:03:22;2.58;;;2.38;;
72864;SDS011;61000;48.120;11.548;2023-02-19T08:05:48;2.80;;;2.60;;
72864;SDS011;61000;48.120;11.548;2023-02-19T08:08:17;3.40;;;2.10;;
72864;SDS011;61000;48.120;11.548;2023-02-19T08:10:44;2.72;;;2.20;;
72864;SDS011;61000;48.120;11.548;2023-02-19T08:13:29;3.88;;;2.10;;
72864;SDS011;61000;48.120;11.548;2023-02-19T08:16:07;2.83;;;2.63;;
72864;SDS011;61000;48.120;11.548;2023-02-19T08:18:38;2.63;;;2.42;;
72864;SDS011;61000;48.120;11.548;2023-02-19T08:21:05;2.33;;;2.13;;
72864;SDS011;61000;48.120;11.548;2023-02-19T08:23:35;3.38;;;2.67;;
72864;SDS011;61000;48.120;11.548;2023-02-19T08:26:05;3.25;;;2.30;;
72864;SDS011;61000;48.120;11.548;2023-02-19T08:28:34;2.85;;;2.40;;
72864;SDS011;61000;48.120;11.548;2023-02-19T08:31:02;2.42;;;2.22;;
72864;SDS011;61000;48.120;11.548;2023-02-19T08:33:30;2.53;;;2.17;;
72864;SDS011;61000;48.120;11.548;2023-02-19T08:36:01;2.05;;;1.95;;
72864;SDS011;61000;48.120;11.548;2023-02-19T08:38:30;3.17;;;2.22;;
72864;SDS011;61000;48.120;11.548;2023-02-19T08:40:58;1.92;;;1.83;;
72864;SDS011;61000;48.120;11.548;2023-02-19T08:43:25;1.90;;;1.80;;
72864;SDS011;61000;48.120;11.548;2023-02-19T08:45:52;2.47;;;2.20;;
72864;SDS011;61000;48.120;11.548;2023-02-19T08:48:20;2.20;;;2.00;;
72864;SDS011;61000;48.120;11.548;2023-02-19T08:50:52;3.00;;;2.00;;
72864;SDS011;61000;48.120;11.548;2023-02-19T08:53:21;2.33;;;2.13;;
72864;SDS011;61000;48.120;11.548;2023-02-19T08:55:48;2.15;;;2.00;;
72864;SDS011;61000;48.120;11.548;2023-02-19T08:58:14;3.00;;;2.70;;
72864;SDS011;61000;48.120;11.548;2023-02-19T09:00:41;2.65;;;2.45;;
72864;SDS011;61000;48.120;11.548;2023-02-19T09:03:08;2.38;;;2.17;;
72864;SDS011;61000;48.120;11.548;2023-02-19T09:05:36;2.92;;;2.22;;
72864;SDS011;61000;48.120;11.548;2023-02-19T09:08:03;3.22;;;2.40;;
72864;SDS011;61000;48.120;11.548;2023-02-19T09:10:32;2.88;;;2.40;;
72864;SDS011;61000;48.120;11.548;2023-02-19T09:12:58;2.38;;;2.13;;
72864;SDS011;61000;48.120;11.548;2023-02-19T09:15:26;2.92;;;2.30;;
72864;SDS011;61000;48.120;11.548;2023-02-19T09:17:54;4.00;;;2.78;;
72864;SDS011;61000;48.120;11.548;2023-02-19T09:20:21;2.60;;;2.40;;
72864;SDS011;61000;48.120;11.548;2023-02-19T09:22:48;2.78;;;2.35;;
72864;SDS011;61000;48.120;11.548;2023-02-19T09:25:15;2.60;;;2.40;;
72864;SDS011;61000;48.120;11.548;2023-02-19T09:27:46;3.90;;;2.47;;
72864;SDS011;61000;48.120;11.548;2023-02-19T09:30:12;2.53;;;2.28;;
72864;SDS011;61000;48.120;11.548;2023-02-19T09:32:39;3.00;;;2.35;;
72864;SDS011;61000;48.120;11.548;2023-02-19T09:35:06;2.33;;;2.13;;
72864;SDS011;61000;48.120;11.548;2023-02-19T09:37:33;2.13;;;2.00;;
72864;SDS011;61000;48.120;11.548;2023-02-19T09:40:00;2.28;;;2.10;;
72864;SDS011;61000;48.120;11.548;2023-02-19T09:42:27;2.03;;;1.83;;
72864;SDS011;61000;48.120;11.548;2023-02-19T09:44:58;2.22;;;2.03;;
72864;SDS011;61000;48.120;11.548;2023-02-19T09:47:27;2.08;;;1.90;;
72864;SDS011;61000;48.120;11.548;2023-02-19T09:49:58;1.88;;;1.77;;
72864;SDS011;61000;48.120;11.548;2023-02-19T09:52:29;1.23;;;1.10;;
72864;SDS011;61000;48.120;11.548;2023-02-19T09:55:00;0.90;;;0.90;;
72864;SDS011;61000;48.120;11.548;2023-02-19T09:57:29;1.10;;;1.00;;
72864;SDS011;61000;48.120;11.548;2023-02-19T10:00:00;0.90;;;0.90;;
72864;SDS011;61000;48.120;11.548;2023-02-19T10:02:30;1.70;;;1.50;;
72864;SDS011;61000;48.120;11.548;2023-02-19T10:04:58;3.33;;;2.10;;
72864;SDS011;61000;48.120;11.548;2023-02-19T10:07:28;2.33;;;1.80;;
72864;SDS011;61000;48.120;11.548;2023-02-19T10:10:05;2.15;;;1.95;;
72864;SDS011;61000;48.120;11.548;2023-02-19T10:12:53;1.38;;;1.27;;
72864;SDS011;61000;48.120;11.548;2023-02-19T10:15:24;1.00;;;1.00;;
72864;SDS011;61000;48.120;11.548;2023-02-19T10:17:55;1.30;;;1.20;;
72864;SDS011;61000;48.120;11.548;2023-02-19T10:20:23;0.82;;;0.82;;
72864;SDS011;61000;48.120;11.548;2023-02-19T10:22:54;0.90;;;0.70;;
72864;SDS011;61000;48.120;11.548;2023-02-19T10:25:25;1.80;;;1.30;;
72864;SDS011;61000;48.120;11.548;2023-02-19T10:27:52;1.38;;;1.17;;
72864;SDS011;61000;48.120;11.548;2023-02-19T10:30:21;1.15;;;1.00;;
72864;SDS011;61000;48.120;11.548;2023-02-19T10:32:57;1.02;;;1.02;;
72864;SDS011;61000;48.120;11.548;2023-02-19T10:35:28;2.25;;;2.05;;
72864;SDS011;61000;48.120;11.548;2023-02-19T10:37:56;1.20;;;1.20;;
72864;SDS011;61000;48.120;11.548;2023-02-19T10:40:23;1.25;;;0.95;;
72864;SDS011;61000;48.120;11.548;2023-02-19T10:42:53;0.98;;;0.98;;
72864;SDS011;61000;48.120;11.548;2023-02-19T10:45:24;0.90;;;0.90;;
72864;SDS011;61000;48.120;11.548;2023-02-19T10:47:57;0.95;;;0.95;;
72864;SDS011;61000;48.120;11.548;2023-02-19T10:50:26;0.90;;;0.90;;
72864;SDS011;61000;48.120;11.548;2023-02-19T10:52:56;0.70;;;0.70;;
72864;SDS011;61000;48.120;11.548;2023-02-19T10:55:28;0.80;;;0.80;;
72864;SDS011;61000;48.120;11.548;2023-02-19T10:57:56;0.73;;;0.70;;
72864;SDS011;61000;48.120;11.548;2023-02-19T11:00:25;0.85;;;0.85;;
72864;SDS011;61000;48.120;11.548;2023-02-19T11:05:53;0.70;;;0.70;;
72864;SDS011;61000;48.120;11.548;2023-02-19T11:08:26;0.73;;;0.70;;
72864;SDS011;61000;48.120;11.548;2023-02-19T11:10:53;1.13;;;0.70;;
72864;SDS011;61000;48.120;11.548;2023-02-19T11:13:24;0.70;;;0.70;;
72864;SDS011;61000;48.120;11.548;2023-02-19T11:15:57;0.75;;;0.73;;
72864;SDS011;61000;48.120;11.548;2023-02-19T11:18:25;0.75;;;0.75;;
72864;SDS011;61000;48.120;11.548;2023-02-19T11:20:54;1.00;;;0.77;;
72864;SDS011;61000;48.120;11.548;2023-02-19T11:23:24;0.88;;;0.80;;
72864;SDS011;61000;48.120;11.548;2023-02-19T11:25:53;1.77;;;0.80;;
72864;SDS011;61000;48.120;11.548;2023-02-19T11:28:31;0.90;;;0.75;;
72864;SDS011;61000;48.120;11.548;2023-02-19T11:33:50;1.23;;;0.80;;
72864;SDS011;61000;48.120;11.548;2023-02-19T11:36:30;2.47;;;0.90;;
72864;SDS011;61000;48.120;11.548;2023-02-19T11:39:00;3.40;;;1.00;;
72864;SDS011;61000;48.120;11.548;2023-02-19T11:44:38;0.85;;;0.70;;
72864;SDS011;61000;48.120;11.548;2023-02-19T11:47:28;1.13;;;1.02;;
72864;SDS011;61000;48.120;11.548;2023-02-19T11:50:17;0.85;;;0.85;;
72864;SDS011;61000;48.120;11.548;2023-02-19T11:52:49;0.85;;;0.85;;
72864;SDS011;61000;48.120;11.548;2023-02-19T11:55:24;0.90;;;0.90;;
72864;SDS011;61000;48.120;11.548;2023-02-19T11:58:03;0.90;;;0.90;;
72864;SDS011;61000;48.120;11.548;2023-02-19T12:00:42;0.70;;;0.70;;
72864;SDS011;61000;48.120;11.548;2023-02-19T12:03:18;0.80;;;0.80;;
72864;SDS011;61000;48.120;11.548;2023-02-19T12:06:03;0.90;;;0.90;;
72864;SDS011;61000;48.120;11.548;2023-02-19T12:08:52;1.65;;;0.85;;
72864;SDS011;61000;48.120;11.548;2023-02-19T12:11:43;2.20;;;0.93;;
72864;SDS011;61000;48.120;11.548;2023-02-19T12:17:19;2.47;;;1.13;;
72864;SDS011;61000;48.120;11.548;2023-02-19T12:20:03;1.02;;;0.90;;
72864;SDS011;61000;48.120;11.548;2023-02-19T12:22:40;1.08;;;1.00;;
72864;SDS011;61000;48.120;11.548;2023-02-19T12:25:24;1.58;;;1.20;;
72864;SDS011;61000;48.120;11.548;2023-02-19T12:31:14;1.23;;;1.10;;
72864;SDS011;61000;48.120;11.548;2023-02-19T12:37:14;2.58;;;1.10;;
72864;SDS011;61000;48.120;11.548;2023-02-19T12:39:56;0.88;;;0.88;;
72864;SDS011;61000;48.120;11.548;2023-02-19T12:42:39;1.52;;;1.10;;
72864;SDS011;61000;48.120;11.548;2023-02-19T12:45:17;1.08;;;1.08;;
72864;SDS011;61000;48.120;11.548;2023-02-19T12:47:49;1.23;;;1.00;;
72864;SDS011;61000;48.120;11.548;2023-02-19T12:50:23;1.33;;;1.08;;
72864;SDS011;61000;48.120;11.548;2023-02-19T12:52:54;0.88;;;0.88;;
72864;SDS011;61000;48.120;11.548;2023-02-19T12:55:27;0.90;;;0.90;;
72864;SDS011;61000;48.120;11.548;2023-02-19T12:57:58;1.08;;;0.93;;
72864;SDS011;61000;48.120;11.548;2023-02-19T13:00:29;1.08;;;1.00;;
72864;SDS011;61000;48.120;11.548;2023-02-19T13:02:59;1.08;;;0.98;;
72864;SDS011;61000;48.120;11.548;2023-02-19T13:05:36;1.08;;;1.00;;
72864;SDS011;61000;48.120;11.548;2023-02-19T13:08:11;3.63;;;1.20;;
72864;SDS011;61000;48.120;11.548;2023-02-19T13:10:43;3.13;;;1.00;;
72864;SDS011;61000;48.120;11.548;2023-02-19T13:13:14;1.23;;;1.08;;
72864;SDS011;61000;48.120;11.548;2023-02-19T13:15:46;1.00;;;0.98;;
72864;SDS011;61000;48.120;11.548;2023-02-19T13:18:17;1.20;;;1.10;;
72864;SDS011;61000;48.120;11.548;2023-02-19T13:20:47;1.23;;;1.10;;
72864;SDS011;61000;48.120;11.548;2023-02-19T13:23:18;2.42;;;1.45;;
72864;SDS011;61000;48.120;11.548;2023-02-19T13:29:12;2.63;;;1.73;;
72864;SDS011;61000;48.120;11.548;2023-02-19T13:31:56;1.10;;;1.10;;
72864;SDS011;61000;48.120;11.548;2023-02-19T13:34:46;1.45;;;1.33;;
72864;SDS011;61000;48.120;11.548;2023-02-19T13:37:24;1.50;;;0.90;;
72864;SDS011;61000;48.120;11.548;2023-02-19T13:39:53;0.93;;;0.93;;
72864;SDS011;61000;48.120;11.548;2023-02-19T13:42:25;1.85;;;1.00;;
72864;SDS011;61000;48.120;11.548;2023-02-19T13:44:53;1.00;;;0.70;;
72864;SDS011;61000;48.120;11.548;2023-02-19T13:50:17;1.85;;;1.10;;
72864;SDS011;61000;48.120;11.548;2023-02-19T13:52:46;2.78;;;1.02;;
72864;SDS011;61000;48.120;11.548;2023-02-19T13:58:38;1.17;;;1.00;;
72864;SDS011;61000;48.120;11.548;2023-02-19T14:01:23;0.93;;;0.88;;
72864;SDS011;61000;48.120;11.548;2023-02-19T14:04:47;1.95;;;0.90;;
72864;SDS011;61000;48.120;11.548;2023-02-19T14:07:20;1.88;;;1.30;;
72864;SDS011;61000;48.120;11.548;2023-02-19T14:10:08;1.05;;;1.05;;
72864;SDS011;61000;48.120;11.548;2023-02-19T14:12:39;1.77;;;1.10;;
72864;SDS011;61000;48.120;11.548;2023-02-19T14:21:13;1.10;;;0.95;;
72864;SDS011;61000;48.120;11.548;2023-02-19T14:23:42;1.15;;;1.05;;
72864;SDS011;61000;48.120;11.548;2023-02-19T14:26:10;1.02;;;1.00;;
72864;SDS011;61000;48.120;11.548;2023-02-19T14:28:42;1.30;;;1.10;;
72864;SDS011;61000;48.120;11.548;2023-02-19T14:33:57;1.73;;;1.25;;
72864;SDS011;61000;48.120;11.548;2023-02-19T14:36:30;1.20;;;1.10;;
72864;SDS011;61000;48.120;11.548;2023-02-19T14:39:01;2.10;;;1.52;;
72864;SDS011;61000;48.120;11.548;2023-02-19T14:41:31;1.27;;;1.27;;
72864;SDS011;61000;48.120;11.548;2023-02-19T14:44:03;1.10;;;1.00;;
72864;SDS011;61000;48.120;11.548;2023-02-19T14:46:38;1.30;;;1.20;;
72864;SDS011;61000;48.120;11.548;2023-02-19T14:49:13;2.60;;;1.95;;
72864;SDS011;61000;48.120;11.548;2023-02-19T14:51:45;2.80;;;2.10;;
72864;SDS011;61000;48.120;11.548;2023-02-19T14:54:16;3.22;;;2.45;;
72864;SDS011;61000;48.120;11.548;2023-02-19T14:56:47;2.05;;;1.85;;
72864;SDS011;61000;48.120;11.548;2023-02-19T14:59:23;2.42;;;1.67;;
72864;SDS011;61000;48.120;11.548;2023-02-19T15:01:52;2.08;;;1.67;;
72864;SDS011;61000;48.120;11.548;2023-02-19T15:04:24;2.92;;;2.10;;
72864;SDS011;61000;48.120;11.548;2023-02-19T15:06:53;2.00;;;1.70;;
72864;SDS011;61000;48.120;11.548;2023-02-19T15:09:23;4.10;;;1.92;;
72864;SDS011;61000;48.120;11.548;2023-02-19T15:11:55;1.88;;;1.60;;
72864;SDS011;61000;48.120;11.548;2023-02-19T15:14:23;2.70;;;2.40;;
72864;SDS011;61000;48.120;11.548;2023-02-19T15:16:54;2.70;;;2.05;;
72864;SDS011;61000;48.120;11.548;2023-02-19T15:19:24;2.92;;;1.50;;
72864;SDS011;61000;48.120;11.548;2023-02-19T15:22:37;1.70;;;1.50;;
72864;SDS011;61000;48.120;11.548;2023-02-19T15:25:00;3.35;;;3.05;;
72864;SDS011;61000;48.120;11.548;2023-02-19T15:27:38;2.33;;;2.13;;
72864;SDS011;61000;48.120;11.548;2023-02-19T15:30:15;3.40;;;2.20;;
72864;SDS011;61000;48.120;11.548;2023-02-19T15:32:50;3.80;;;1.67;;
72864;SDS011;61000;48.120;11.548;2023-02-19T15:35:18;2.33;;;1.95;;
72864;SDS011;61000;48.120;11.548;2023-02-19T15:37:48;3.72;;;1.63;;